sensor_id;sensor_type;location;lat;lon;timestamp;temperature;humidity
7704;DHT22;3894;49.700;10.770;2022-12-07T00:01:09;2.50;99.90
7704;DHT22;3894;49.700;10.770;2022-12-07T00:03:36;2.40;99.90
7704;DHT22;3894;49.700;10.770;2022-12-07T00:06:02;2.40;99.90
7704;DHT22;3894;49.700;10.770;2022-12-07T00:08:29;2.40;99.90
7704;DHT22;3894;49.700;10.770;2022-12-07T00:10:55;2.40;99.90
7704;DHT22;3894;49.700;10.770;2022-12-07T00:13:20;2.40;99.90
7704;DHT22;3894;49.700;10.770;2022-12-07T00:15:46;2.40;99.90
7704;DHT22;3894;49.700;10.770;2022-12-07T00:18:11;2.40;99.90
7704;DHT22;3894;49.700;10.770;2022-12-07T00:20:37;2.40;99.90
7704;DHT22;3894;49.700;10.770;2022-12-07T00:23:02;2.40;99.90
7704;DHT22;3894;49.700;10.770;2022-12-07T00:25:28;2.40;99.90
7704;DHT22;3894;49.700;10.770;2022-12-07T00:27:55;2.40;99.90
7704;DHT22;3894;49.700;10.770;2022-12-07T00:30:22;2.40;99.90
7704;DHT22;3894;49.700;10.770;2022-12-07T00:32:49;2.40;99.90
7704;DHT22;3894;49.700;10.770;2022-12-07T00:35:14;2.40;99.90
7704;DHT22;3894;49.700;10.770;2022-12-07T00:37:40;2.40;99.90
7704;DHT22;3894;49.700;10.770;2022-12-07T00:40:06;2.40;99.90
7704;DHT22;3894;49.700;10.770;2022-12-07T00:42:32;2.40;99.90
7704;DHT22;3894;49.700;10.770;2022-12-07T00:44:57;2.40;99.90
7704;DHT22;3894;49.700;10.770;2022-12-07T00:47:23;2.50;99.90
7704;DHT22;3894;49.700;10.770;2022-12-07T00:49:48;2.40;99.90
7704;DHT22;3894;49.700;10.770;2022-12-07T00:52:14;2.40;99.90
7704;DHT22;3894;49.700;10.770;2022-12-07T00:54:40;2.40;99.90
7704;DHT22;3894;49.700;10.770;2022-12-07T00:57:05;2.40;99.90
7704;DHT22;3894;49.700;10.770;2022-12-07T00:59:31;2.40;99.90
7704;DHT22;3894;49.700;10.770;2022-12-07T01:01:56;2.40;99.90
7704;DHT22;3894;49.700;10.770;2022-12-07T01:04:22;2.40;99.90
7704;DHT22;3894;49.700;10.770;2022-12-07T01:06:47;2.40;99.90
7704;DHT22;3894;49.700;10.770;2022-12-07T01:09:13;2.40;99.90
7704;DHT22;3894;49.700;10.770;2022-12-07T01:11:39;2.40;99.90
7704;DHT22;3894;49.700;10.770;2022-12-07T01:14:04;2.40;99.90
7704;DHT22;3894;49.700;10.770;2022-12-07T01:16:32;2.30;99.90
7704;DHT22;3894;49.700;10.770;2022-12-07T01:18:59;2.30;99.90
7704;DHT22;3894;49.700;10.770;2022-12-07T01:21:27;2.30;99.90
7704;DHT22;3894;49.700;10.770;2022-12-07T01:23:53;2.30;99.90
7704;DHT22;3894;49.700;10.770;2022-12-07T01:26:21;2.30;99.90
7704;DHT22;3894;49.700;10.770;2022-12-07T01:28:47;2.30;99.90
7704;DHT22;3894;49.700;10.770;2022-12-07T01:31:15;2.30;99.90
7704;DHT22;3894;49.700;10.770;2022-12-07T01:33:42;2.30;99.90
7704;DHT22;3894;49.700;10.770;2022-12-07T01:36:20;2.30;99.90
7704;DHT22;3894;49.700;10.770;2022-12-07T01:38:47;2.30;99.90
7704;DHT22;3894;49.700;10.770;2022-12-07T01:41:14;2.30;99.90
7704;DHT22;3894;49.700;10.770;2022-12-07T01:46:52;2.30;99.90
7704;DHT22;3894;49.700;10.770;2022-12-07T01:49:22;2.30;99.90
7704;DHT22;3894;49.700;10.770;2022-12-07T01:51:52;2.20;99.90
7704;DHT22;3894;49.700;10.770;2022-12-07T01:54:20;2.20;99.90
7704;DHT22;3894;49.700;10.770;2022-12-07T01:56:50;2.20;99.90
7704;DHT22;3894;49.700;10.770;2022-12-07T01:59:18;2.20;99.90
7704;DHT22;3894;49.700;10.770;2022-12-07T02:01:45;2.20;99.90
7704;DHT22;3894;49.700;10.770;2022-12-07T02:04:11;2.20;99.90
7704;DHT22;3894;49.700;10.770;2022-12-07T02:06:37;2.20;99.90
7704;DHT22;3894;49.700;10.770;2022-12-07T02:09:03;2.20;99.90
7704;DHT22;3894;49.700;10.770;2022-12-07T02:11:29;2.20;99.90
7704;DHT22;3894;49.700;10.770;2022-12-07T02:13:55;2.20;99.90
7704;DHT22;3894;49.700;10.770;2022-12-07T02:22:22;2.10;99.90
7704;DHT22;3894;49.700;10.770;2022-12-07T02:30:46;2.10;99.90
7704;DHT22;3894;49.700;10.770;2022-12-07T02:33:17;2.10;99.90
7704;DHT22;3894;49.700;10.770;2022-12-07T02:36:04;2.00;99.90
7704;DHT22;3894;49.700;10.770;2022-12-07T02:38:57;2.00;99.90
7704;DHT22;3894;49.700;10.770;2022-12-07T02:41:33;1.90;99.90
7704;DHT22;3894;49.700;10.770;2022-12-07T02:44:07;1.90;99.90
7704;DHT22;3894;49.700;10.770;2022-12-07T02:46:37;1.90;99.90
7704;DHT22;3894;49.700;10.770;2022-12-07T02:49:03;1.90;99.90
7704;DHT22;3894;49.700;10.770;2022-12-07T02:51:30;1.90;99.90
7704;DHT22;3894;49.700;10.770;2022-12-07T02:53:56;1.90;99.90
7704;DHT22;3894;49.700;10.770;2022-12-07T02:56:57;1.90;99.90
7704;DHT22;3894;49.700;10.770;2022-12-07T03:05:38;1.80;99.90
7704;DHT22;3894;49.700;10.770;2022-12-07T03:10:57;1.80;99.90
7704;DHT22;3894;49.700;10.770;2022-12-07T03:13:45;1.90;99.90
7704;DHT22;3894;49.700;10.770;2022-12-07T03:16:43;1.80;99.90
7704;DHT22;3894;49.700;10.770;2022-12-07T03:19:14;1.80;99.90
7704;DHT22;3894;49.700;10.770;2022-12-07T03:21:44;1.80;99.90
7704;DHT22;3894;49.700;10.770;2022-12-07T03:24:16;1.80;99.90
7704;DHT22;3894;49.700;10.770;2022-12-07T03:26:47;1.80;99.90
7704;DHT22;3894;49.700;10.770;2022-12-07T03:29:25;1.80;99.90
7704;DHT22;3894;49.700;10.770;2022-12-07T03:32:00;1.80;99.90
7704;DHT22;3894;49.700;10.770;2022-12-07T03:34:38;1.90;99.90
7704;DHT22;3894;49.700;10.770;2022-12-07T03:37:14;1.90;99.90
7704;DHT22;3894;49.700;10.770;2022-12-07T03:40:28;1.80;99.90
7704;DHT22;3894;49.700;10.770;2022-12-07T03:42:55;1.80;99.90
7704;DHT22;3894;49.700;10.770;2022-12-07T03:45:40;1.80;99.90
7704;DHT22;3894;49.700;10.770;2022-12-07T03:51:06;1.80;99.90
7704;DHT22;3894;49.700;10.770;2022-12-07T03:53:36;1.80;99.90
7704;DHT22;3894;49.700;10.770;2022-12-07T03:56:04;1.80;99.90
7704;DHT22;3894;49.700;10.770;2022-12-07T03:58:31;1.80;99.90
7704;DHT22;3894;49.700;10.770;2022-12-07T04:00:58;1.80;99.90
7704;DHT22;3894;49.700;10.770;2022-12-07T04:03:23;1.70;99.90
7704;DHT22;3894;49.700;10.770;2022-12-07T04:05:49;1.70;99.90
7704;DHT22;3894;49.700;10.770;2022-12-07T04:08:14;1.70;99.90
7704;DHT22;3894;49.700;10.770;2022-12-07T04:10:40;1.70;99.90
7704;DHT22;3894;49.700;10.770;2022-12-07T04:13:05;1.70;99.90
7704;DHT22;3894;49.700;10.770;2022-12-07T04:15:31;1.70;99.90
7704;DHT22;3894;49.700;10.770;2022-12-07T04:17:57;1.70;99.90
7704;DHT22;3894;49.700;10.770;2022-12-07T04:20:22;1.70;99.90
7704;DHT22;3894;49.700;10.770;2022-12-07T04:22:48;1.70;99.90
7704;DHT22;3894;49.700;10.770;2022-12-07T04:25:13;1.70;99.90
7704;DHT22;3894;49.700;10.770;2022-12-07T04:27:39;1.70;99.90
7704;DHT22;3894;49.700;10.770;2022-12-07T04:30:05;1.70;99.90
7704;DHT22;3894;49.700;10.770;2022-12-07T04:32:31;1.70;99.90
7704;DHT22;3894;49.700;10.770;2022-12-07T04:34:56;1.70;99.90
7704;DHT22;3894;49.700;10.770;2022-12-07T04:37:22;1.70;99.90
7704;DHT22;3894;49.700;10.770;2022-12-07T04:39:49;1.80;99.90
7704;DHT22;3894;49.700;10.770;2022-12-07T04:42:15;1.80;99.90
7704;DHT22;3894;49.700;10.770;2022-12-07T04:44:41;1.80;99.90
7704;DHT22;3894;49.700;10.770;2022-12-07T04:47:06;1.80;99.90
7704;DHT22;3894;49.700;10.770;2022-12-07T04:49:32;1.80;99.90
7704;DHT22;3894;49.700;10.770;2022-12-07T04:51:58;1.80;99.90
7704;DHT22;3894;49.700;10.770;2022-12-07T04:54:23;1.80;99.90
7704;DHT22;3894;49.700;10.770;2022-12-07T04:56:49;1.80;99.90
7704;DHT22;3894;49.700;10.770;2022-12-07T04:59:15;1.80;99.90
7704;DHT22;3894;49.700;10.770;2022-12-07T05:01:41;1.80;99.90
7704;DHT22;3894;49.700;10.770;2022-12-07T05:04:07;1.80;99.90
7704;DHT22;3894;49.700;10.770;2022-12-07T05:06:33;1.80;99.90
7704;DHT22;3894;49.700;10.770;2022-12-07T05:08:58;1.80;99.90
7704;DHT22;3894;49.700;10.770;2022-12-07T05:11:24;1.80;99.90
7704;DHT22;3894;49.700;10.770;2022-12-07T05:14:14;1.80;99.90
7704;DHT22;3894;49.700;10.770;2022-12-07T05:16:41;1.80;99.90
7704;DHT22;3894;49.700;10.770;2022-12-07T05:19:08;1.80;99.90
7704;DHT22;3894;49.700;10.770;2022-12-07T05:21:34;1.90;99.90
7704;DHT22;3894;49.700;10.770;2022-12-07T05:24:00;1.90;99.90
7704;DHT22;3894;49.700;10.770;2022-12-07T05:26:26;1.90;99.90
7704;DHT22;3894;49.700;10.770;2022-12-07T05:28:53;1.90;99.90
7704;DHT22;3894;49.700;10.770;2022-12-07T05:31:19;1.90;99.90
7704;DHT22;3894;49.700;10.770;2022-12-07T05:33:44;1.90;99.90
7704;DHT22;3894;49.700;10.770;2022-12-07T05:36:10;1.90;99.90
7704;DHT22;3894;49.700;10.770;2022-12-07T05:38:35;1.90;99.90
7704;DHT22;3894;49.700;10.770;2022-12-07T05:41:05;2.00;99.90
7704;DHT22;3894;49.700;10.770;2022-12-07T05:43:32;1.90;99.90
7704;DHT22;3894;49.700;10.770;2022-12-07T05:45:58;1.90;99.90
7704;DHT22;3894;49.700;10.770;2022-12-07T05:48:24;1.90;99.90
7704;DHT22;3894;49.700;10.770;2022-12-07T05:50:50;1.90;99.90
7704;DHT22;3894;49.700;10.770;2022-12-07T05:53:16;1.90;99.90
7704;DHT22;3894;49.700;10.770;2022-12-07T05:55:41;1.90;99.90
7704;DHT22;3894;49.700;10.770;2022-12-07T05:58:07;1.90;99.90
7704;DHT22;3894;49.700;10.770;2022-12-07T06:00:53;1.90;99.90
7704;DHT22;3894;49.700;10.770;2022-12-07T06:03:19;1.90;99.90
7704;DHT22;3894;49.700;10.770;2022-12-07T06:05:44;1.90;99.90
7704;DHT22;3894;49.700;10.770;2022-12-07T06:08:10;1.90;99.90
7704;DHT22;3894;49.700;10.770;2022-12-07T06:10:36;1.90;99.90
7704;DHT22;3894;49.700;10.770;2022-12-07T06:13:01;1.90;99.90
7704;DHT22;3894;49.700;10.770;2022-12-07T06:15:27;1.80;99.90
7704;DHT22;3894;49.700;10.770;2022-12-07T06:17:52;1.80;99.90
7704;DHT22;3894;49.700;10.770;2022-12-07T06:20:18;1.90;99.90
7704;DHT22;3894;49.700;10.770;2022-12-07T06:22:43;1.90;99.90
7704;DHT22;3894;49.700;10.770;2022-12-07T06:25:12;1.90;99.90
7704;DHT22;3894;49.700;10.770;2022-12-07T06:27:37;1.90;99.90
7704;DHT22;3894;49.700;10.770;2022-12-07T06:30:04;1.90;99.90
7704;DHT22;3894;49.700;10.770;2022-12-07T06:32:32;1.90;99.90
7704;DHT22;3894;49.700;10.770;2022-12-07T06:34:59;2.00;99.90
7704;DHT22;3894;49.700;10.770;2022-12-07T06:37:25;2.00;99.90
7704;DHT22;3894;49.700;10.770;2022-12-07T06:39:50;2.00;99.90
7704;DHT22;3894;49.700;10.770;2022-12-07T06:42:16;1.90;99.90
7704;DHT22;3894;49.700;10.770;2022-12-07T06:44:42;2.00;99.90
7704;DHT22;3894;49.700;10.770;2022-12-07T06:47:07;2.00;99.90
7704;DHT22;3894;49.700;10.770;2022-12-07T06:49:34;1.90;99.90
7704;DHT22;3894;49.700;10.770;2022-12-07T06:52:00;1.90;99.90
7704;DHT22;3894;49.700;10.770;2022-12-07T06:54:26;2.00;99.90
7704;DHT22;3894;49.700;10.770;2022-12-07T06:56:51;2.00;99.90
7704;DHT22;3894;49.700;10.770;2022-12-07T06:59:17;1.90;99.90
7704;DHT22;3894;49.700;10.770;2022-12-07T07:01:42;2.00;99.90
7704;DHT22;3894;49.700;10.770;2022-12-07T07:04:08;2.00;99.90
7704;DHT22;3894;49.700;10.770;2022-12-07T07:06:33;2.00;99.90
7704;DHT22;3894;49.700;10.770;2022-12-07T07:08:59;2.00;99.90
7704;DHT22;3894;49.700;10.770;2022-12-07T07:11:25;2.00;99.90
7704;DHT22;3894;49.700;10.770;2022-12-07T07:13:50;2.00;99.90
7704;DHT22;3894;49.700;10.770;2022-12-07T07:16:16;2.10;99.90
7704;DHT22;3894;49.700;10.770;2022-12-07T07:18:41;2.10;99.90
7704;DHT22;3894;49.700;10.770;2022-12-07T07:21:07;2.10;99.90
7704;DHT22;3894;49.700;10.770;2022-12-07T07:23:33;2.10;99.90
7704;DHT22;3894;49.700;10.770;2022-12-07T07:25:58;2.10;99.90
7704;DHT22;3894;49.700;10.770;2022-12-07T07:28:24;2.10;99.90
7704;DHT22;3894;49.700;10.770;2022-12-07T07:30:50;2.10;99.90
7704;DHT22;3894;49.700;10.770;2022-12-07T07:33:15;2.10;99.90
7704;DHT22;3894;49.700;10.770;2022-12-07T07:35:41;2.20;99.90
7704;DHT22;3894;49.700;10.770;2022-12-07T07:38:08;2.20;99.90
7704;DHT22;3894;49.700;10.770;2022-12-07T07:40:34;2.20;99.90
7704;DHT22;3894;49.700;10.770;2022-12-07T07:42:59;2.20;99.90
7704;DHT22;3894;49.700;10.770;2022-12-07T07:45:26;2.20;99.90
7704;DHT22;3894;49.700;10.770;2022-12-07T07:47:52;2.20;99.90
7704;DHT22;3894;49.700;10.770;2022-12-07T07:50:18;2.20;99.90
7704;DHT22;3894;49.700;10.770;2022-12-07T07:52:44;2.20;99.90
7704;DHT22;3894;49.700;10.770;2022-12-07T07:55:11;2.20;99.90
7704;DHT22;3894;49.700;10.770;2022-12-07T07:57:38;2.20;99.90
7704;DHT22;3894;49.700;10.770;2022-12-07T08:00:05;2.20;99.90
7704;DHT22;3894;49.700;10.770;2022-12-07T08:02:31;2.30;99.90
7704;DHT22;3894;49.700;10.770;2022-12-07T08:04:56;2.30;99.90
7704;DHT22;3894;49.700;10.770;2022-12-07T08:07:22;2.30;99.90
7704;DHT22;3894;49.700;10.770;2022-12-07T08:09:47;2.30;99.90
7704;DHT22;3894;49.700;10.770;2022-12-07T08:12:13;2.30;99.90
7704;DHT22;3894;49.700;10.770;2022-12-07T08:14:39;2.30;99.90
7704;DHT22;3894;49.700;10.770;2022-12-07T08:17:04;2.30;99.90
7704;DHT22;3894;49.700;10.770;2022-12-07T08:19:30;2.30;99.90
7704;DHT22;3894;49.700;10.770;2022-12-07T08:21:56;2.30;99.90
7704;DHT22;3894;49.700;10.770;2022-12-07T08:24:22;2.30;99.90
7704;DHT22;3894;49.700;10.770;2022-12-07T08:26:47;2.40;99.90
7704;DHT22;3894;49.700;10.770;2022-12-07T08:29:15;2.40;99.90
7704;DHT22;3894;49.700;10.770;2022-12-07T08:31:40;2.40;99.90
7704;DHT22;3894;49.700;10.770;2022-12-07T08:34:06;2.50;99.90
7704;DHT22;3894;49.700;10.770;2022-12-07T08:36:32;2.50;99.90
7704;DHT22;3894;49.700;10.770;2022-12-07T08:38:57;2.50;99.90
7704;DHT22;3894;49.700;10.770;2022-12-07T08:41:23;2.50;99.90
7704;DHT22;3894;49.700;10.770;2022-12-07T08:43:51;2.50;99.90
7704;DHT22;3894;49.700;10.770;2022-12-07T08:46:26;2.50;99.90
7704;DHT22;3894;49.700;10.770;2022-12-07T08:49:43;2.50;99.90
7704;DHT22;3894;49.700;10.770;2022-12-07T08:51:43;2.50;99.90
7704;DHT22;3894;49.700;10.770;2022-12-07T08:54:11;2.50;99.90
7704;DHT22;3894;49.700;10.770;2022-12-07T08:56:38;2.50;99.90
7704;DHT22;3894;49.700;10.770;2022-12-07T08:59:05;2.60;99.90
7704;DHT22;3894;49.700;10.770;2022-12-07T09:01:31;2.60;99.90
7704;DHT22;3894;49.700;10.770;2022-12-07T09:03:58;2.60;99.90
7704;DHT22;3894;49.700;10.770;2022-12-07T09:06:23;2.60;99.90
7704;DHT22;3894;49.700;10.770;2022-12-07T09:08:52;2.60;99.90
7704;DHT22;3894;49.700;10.770;2022-12-07T09:11:18;2.60;99.90
7704;DHT22;3894;49.700;10.770;2022-12-07T09:13:44;2.60;99.90
7704;DHT22;3894;49.700;10.770;2022-12-07T09:16:10;2.60;99.90
7704;DHT22;3894;49.700;10.770;2022-12-07T09:18:36;2.70;99.90
7704;DHT22;3894;49.700;10.770;2022-12-07T09:21:01;2.70;99.90
7704;DHT22;3894;49.700;10.770;2022-12-07T09:23:27;2.70;99.90
7704;DHT22;3894;49.700;10.770;2022-12-07T09:25:52;2.70;99.90
7704;DHT22;3894;49.700;10.770;2022-12-07T09:28:18;2.70;99.90
7704;DHT22;3894;49.700;10.770;2022-12-07T09:30:47;2.70;99.90
7704;DHT22;3894;49.700;10.770;2022-12-07T09:33:13;2.70;99.90
7704;DHT22;3894;49.700;10.770;2022-12-07T09:35:47;2.70;99.90
7704;DHT22;3894;49.700;10.770;2022-12-07T09:38:13;2.70;99.90
7704;DHT22;3894;49.700;10.770;2022-12-07T09:40:39;2.80;99.90
7704;DHT22;3894;49.700;10.770;2022-12-07T09:43:11;2.80;99.90
7704;DHT22;3894;49.700;10.770;2022-12-07T09:45:38;2.80;99.90
7704;DHT22;3894;49.700;10.770;2022-12-07T09:48:04;2.80;99.90
7704;DHT22;3894;49.700;10.770;2022-12-07T09:50:30;2.80;99.90
7704;DHT22;3894;49.700;10.770;2022-12-07T09:53:09;2.80;99.90
7704;DHT22;3894;49.700;10.770;2022-12-07T09:55:36;2.80;99.90
7704;DHT22;3894;49.700;10.770;2022-12-07T09:58:02;2.80;99.90
7704;DHT22;3894;49.700;10.770;2022-12-07T10:00:29;2.80;99.90
7704;DHT22;3894;49.700;10.770;2022-12-07T10:03:02;2.80;99.90
7704;DHT22;3894;49.700;10.770;2022-12-07T10:05:36;2.90;99.90
7704;DHT22;3894;49.700;10.770;2022-12-07T10:08:02;2.90;99.90
7704;DHT22;3894;49.700;10.770;2022-12-07T10:10:33;2.90;99.90
7704;DHT22;3894;49.700;10.770;2022-12-07T10:13:06;2.90;99.90
7704;DHT22;3894;49.700;10.770;2022-12-07T10:15:57;2.90;99.90
7704;DHT22;3894;49.700;10.770;2022-12-07T10:18:40;2.90;99.90
7704;DHT22;3894;49.700;10.770;2022-12-07T10:21:21;2.90;99.90
7704;DHT22;3894;49.700;10.770;2022-12-07T10:24:04;3.00;99.90
7704;DHT22;3894;49.700;10.770;2022-12-07T10:26:32;3.00;99.90
7704;DHT22;3894;49.700;10.770;2022-12-07T10:31:38;3.00;99.90
7704;DHT22;3894;49.700;10.770;2022-12-07T10:34:28;3.00;99.90
7704;DHT22;3894;49.700;10.770;2022-12-07T10:39:50;3.00;99.90
7704;DHT22;3894;49.700;10.770;2022-12-07T10:44:49;3.00;99.90
7704;DHT22;3894;49.700;10.770;2022-12-07T10:52:49;3.00;99.90
7704;DHT22;3894;49.700;10.770;2022-12-07T10:55:28;3.00;99.90
7704;DHT22;3894;49.700;10.770;2022-12-07T10:58:40;3.10;99.90
7704;DHT22;3894;49.700;10.770;2022-12-07T11:01:31;3.10;99.90
7704;DHT22;3894;49.700;10.770;2022-12-07T11:09:46;3.00;99.90
7704;DHT22;3894;49.700;10.770;2022-12-07T11:15:18;3.00;99.90
7704;DHT22;3894;49.700;10.770;2022-12-07T11:20:39;3.10;99.90
7704;DHT22;3894;49.700;10.770;2022-12-07T11:25:54;3.10;99.90
7704;DHT22;3894;49.700;10.770;2022-12-07T11:31:24;3.20;99.90
7704;DHT22;3894;49.700;10.770;2022-12-07T11:34:10;3.20;99.90
7704;DHT22;3894;49.700;10.770;2022-12-07T11:36:45;3.20;99.90
7704;DHT22;3894;49.700;10.770;2022-12-07T11:39:35;3.20;99.90
7704;DHT22;3894;49.700;10.770;2022-12-07T11:42:12;3.30;99.90
7704;DHT22;3894;49.700;10.770;2022-12-07T11:44:53;3.30;99.90
7704;DHT22;3894;49.700;10.770;2022-12-07T11:52:53;3.30;99.90
7704;DHT22;3894;49.700;10.770;2022-12-07T11:55:40;3.30;99.90
7704;DHT22;3894;49.700;10.770;2022-12-07T12:01:00;3.30;99.90
7704;DHT22;3894;49.700;10.770;2022-12-07T12:03:33;3.40;99.90
7704;DHT22;3894;49.700;10.770;2022-12-07T12:05:59;3.40;99.90
7704;DHT22;3894;49.700;10.770;2022-12-07T12:08:35;3.40;99.90
7704;DHT22;3894;49.700;10.770;2022-12-07T12:22:17;3.40;99.90
7704;DHT22;3894;49.700;10.770;2022-12-07T12:24:45;3.50;99.90
7704;DHT22;3894;49.700;10.770;2022-12-07T12:27:33;3.50;99.90
7704;DHT22;3894;49.700;10.770;2022-12-07T12:30:02;3.50;99.90
7704;DHT22;3894;49.700;10.770;2022-12-07T12:32:40;3.50;99.90
7704;DHT22;3894;49.700;10.770;2022-12-07T12:35:35;3.60;99.90
7704;DHT22;3894;49.700;10.770;2022-12-07T12:38:31;3.60;99.90
7704;DHT22;3894;49.700;10.770;2022-12-07T12:41:00;3.60;99.90
7704;DHT22;3894;49.700;10.770;2022-12-07T12:43:53;3.60;99.90
7704;DHT22;3894;49.700;10.770;2022-12-07T12:51:50;3.60;99.90
7704;DHT22;3894;49.700;10.770;2022-12-07T12:54:25;3.60;99.90
7704;DHT22;3894;49.700;10.770;2022-12-07T12:56:55;3.60;99.90
7704;DHT22;3894;49.700;10.770;2022-12-07T13:02:29;3.60;99.90
7704;DHT22;3894;49.700;10.770;2022-12-07T13:05:00;3.60;99.90
7704;DHT22;3894;49.700;10.770;2022-12-07T13:10:36;3.60;99.90
7704;DHT22;3894;49.700;10.770;2022-12-07T13:15:41;3.60;99.90
7704;DHT22;3894;49.700;10.770;2022-12-07T13:20:58;3.60;99.90
7704;DHT22;3894;49.700;10.770;2022-12-07T13:26:22;3.60;99.90
7704;DHT22;3894;49.700;10.770;2022-12-07T13:29:09;3.60;99.90
7704;DHT22;3894;49.700;10.770;2022-12-07T13:31:53;3.60;99.90
7704;DHT22;3894;49.700;10.770;2022-12-07T13:39:52;3.60;99.90
7704;DHT22;3894;49.700;10.770;2022-12-07T13:42:32;3.60;99.90
7704;DHT22;3894;49.700;10.770;2022-12-07T13:45:00;3.60;99.90
7704;DHT22;3894;49.700;10.770;2022-12-07T13:47:34;3.70;99.90
7704;DHT22;3894;49.700;10.770;2022-12-07T13:50:25;3.70;99.90
7704;DHT22;3894;49.700;10.770;2022-12-07T13:52:55;3.70;99.90
7704;DHT22;3894;49.700;10.770;2022-12-07T13:55:20;3.70;99.90
7704;DHT22;3894;49.700;10.770;2022-12-07T13:57:51;3.70;99.90
7704;DHT22;3894;49.700;10.770;2022-12-07T14:00:25;3.70;99.90
7704;DHT22;3894;49.700;10.770;2022-12-07T14:05:38;3.70;99.90
7704;DHT22;3894;49.700;10.770;2022-12-07T14:08:20;3.70;99.90
7704;DHT22;3894;49.700;10.770;2022-12-07T14:13:36;3.70;99.90
7704;DHT22;3894;49.700;10.770;2022-12-07T14:16:24;3.70;99.90
7704;DHT22;3894;49.700;10.770;2022-12-07T14:18:50;3.70;99.90
7704;DHT22;3894;49.700;10.770;2022-12-07T14:21:18;3.60;99.90
7704;DHT22;3894;49.700;10.770;2022-12-07T14:23:45;3.60;99.90
7704;DHT22;3894;49.700;10.770;2022-12-07T14:26:20;3.60;99.90
7704;DHT22;3894;49.700;10.770;2022-12-07T14:28:47;3.60;99.90
7704;DHT22;3894;49.700;10.770;2022-12-07T14:31:17;3.60;99.90
7704;DHT22;3894;49.700;10.770;2022-12-07T14:33:45;3.60;99.90
7704;DHT22;3894;49.700;10.770;2022-12-07T14:36:11;3.60;99.90
7704;DHT22;3894;49.700;10.770;2022-12-07T14:38:37;3.60;99.90
7704;DHT22;3894;49.700;10.770;2022-12-07T14:41:04;3.60;99.90
7704;DHT22;3894;49.700;10.770;2022-12-07T14:43:49;3.60;99.90
7704;DHT22;3894;49.700;10.770;2022-12-07T14:46:14;3.50;99.90
7704;DHT22;3894;49.700;10.770;2022-12-07T14:48:40;3.50;99.90
7704;DHT22;3894;49.700;10.770;2022-12-07T14:51:08;3.50;99.90
7704;DHT22;3894;49.700;10.770;2022-12-07T14:53:40;3.50;99.90
7704;DHT22;3894;49.700;10.770;2022-12-07T14:56:06;3.50;99.90
7704;DHT22;3894;49.700;10.770;2022-12-07T14:58:32;3.40;99.90
7704;DHT22;3894;49.700;10.770;2022-12-07T15:00:58;3.40;99.90
7704;DHT22;3894;49.700;10.770;2022-12-07T15:03:24;3.40;99.90
7704;DHT22;3894;49.700;10.770;2022-12-07T15:05:49;3.30;99.90
7704;DHT22;3894;49.700;10.770;2022-12-07T15:08:15;3.20;99.90
7704;DHT22;3894;49.700;10.770;2022-12-07T15:10:40;3.20;99.90
7704;DHT22;3894;49.700;10.770;2022-12-07T15:13:07;3.10;99.90
7704;DHT22;3894;49.700;10.770;2022-12-07T15:16:10;3.00;99.90
7704;DHT22;3894;49.700;10.770;2022-12-07T15:18:37;2.90;99.90
7704;DHT22;3894;49.700;10.770;2022-12-07T15:21:02;2.90;99.90
7704;DHT22;3894;49.700;10.770;2022-12-07T15:23:28;2.90;99.90
7704;DHT22;3894;49.700;10.770;2022-12-07T15:25:53;2.90;99.90
7704;DHT22;3894;49.700;10.770;2022-12-07T15:28:19;2.90;99.90
7704;DHT22;3894;49.700;10.770;2022-12-07T15:30:44;2.90;99.90
7704;DHT22;3894;49.700;10.770;2022-12-07T15:33:11;2.90;99.90
7704;DHT22;3894;49.700;10.770;2022-12-07T15:35:41;2.90;99.90
7704;DHT22;3894;49.700;10.770;2022-12-07T15:38:06;2.90;99.90
7704;DHT22;3894;49.700;10.770;2022-12-07T15:40:32;2.90;99.90
7704;DHT22;3894;49.700;10.770;2022-12-07T15:42:58;2.90;99.90
7704;DHT22;3894;49.700;10.770;2022-12-07T15:45:23;2.90;99.90
7704;DHT22;3894;49.700;10.770;2022-12-07T15:47:49;2.90;99.90
7704;DHT22;3894;49.700;10.770;2022-12-07T15:50:15;2.90;99.90
7704;DHT22;3894;49.700;10.770;2022-12-07T15:52:41;2.90;99.90
7704;DHT22;3894;49.700;10.770;2022-12-07T15:55:08;2.90;99.90
7704;DHT22;3894;49.700;10.770;2022-12-07T15:57:36;2.90;99.90
7704;DHT22;3894;49.700;10.770;2022-12-07T16:00:03;2.90;99.90
7704;DHT22;3894;49.700;10.770;2022-12-07T16:02:29;2.90;99.90
7704;DHT22;3894;49.700;10.770;2022-12-07T16:04:55;2.90;99.90
7704;DHT22;3894;49.700;10.770;2022-12-07T16:07:20;2.90;99.90
7704;DHT22;3894;49.700;10.770;2022-12-07T16:09:46;2.90;99.90
7704;DHT22;3894;49.700;10.770;2022-12-07T16:12:13;2.90;99.90
7704;DHT22;3894;49.700;10.770;2022-12-07T16:14:39;2.90;99.90
7704;DHT22;3894;49.700;10.770;2022-12-07T16:17:07;2.90;99.90
7704;DHT22;3894;49.700;10.770;2022-12-07T16:19:33;2.90;99.90
7704;DHT22;3894;49.700;10.770;2022-12-07T16:21:59;2.90;99.90
7704;DHT22;3894;49.700;10.770;2022-12-07T16:24:25;2.80;99.90
7704;DHT22;3894;49.700;10.770;2022-12-07T16:26:51;2.80;99.90
7704;DHT22;3894;49.700;10.770;2022-12-07T16:29:19;2.80;99.90
7704;DHT22;3894;49.700;10.770;2022-12-07T16:31:45;2.80;99.90
7704;DHT22;3894;49.700;10.770;2022-12-07T16:34:11;2.80;99.90
7704;DHT22;3894;49.700;10.770;2022-12-07T16:36:36;2.80;99.90
7704;DHT22;3894;49.700;10.770;2022-12-07T16:39:03;2.80;99.90
7704;DHT22;3894;49.700;10.770;2022-12-07T16:41:29;2.70;99.90
7704;DHT22;3894;49.700;10.770;2022-12-07T16:43:54;2.70;99.90
7704;DHT22;3894;49.700;10.770;2022-12-07T16:46:20;2.70;99.90
7704;DHT22;3894;49.700;10.770;2022-12-07T16:48:45;2.70;99.90
7704;DHT22;3894;49.700;10.770;2022-12-07T16:51:12;2.70;99.90
7704;DHT22;3894;49.700;10.770;2022-12-07T16:53:40;2.70;99.90
7704;DHT22;3894;49.700;10.770;2022-12-07T16:56:11;2.70;99.90
7704;DHT22;3894;49.700;10.770;2022-12-07T16:58:37;2.70;99.90
7704;DHT22;3894;49.700;10.770;2022-12-07T17:01:10;2.70;99.90
7704;DHT22;3894;49.700;10.770;2022-12-07T17:03:36;2.70;99.90
7704;DHT22;3894;49.700;10.770;2022-12-07T17:06:02;2.70;99.90
7704;DHT22;3894;49.700;10.770;2022-12-07T17:08:27;2.70;99.90
7704;DHT22;3894;49.700;10.770;2022-12-07T17:10:53;2.70;99.90
7704;DHT22;3894;49.700;10.770;2022-12-07T17:13:18;2.70;99.90
7704;DHT22;3894;49.700;10.770;2022-12-07T17:16:05;2.70;99.90
7704;DHT22;3894;49.700;10.770;2022-12-07T17:18:32;2.70;99.90
7704;DHT22;3894;49.700;10.770;2022-12-07T17:21:04;2.60;99.90
7704;DHT22;3894;49.700;10.770;2022-12-07T17:23:30;2.70;99.90
7704;DHT22;3894;49.700;10.770;2022-12-07T17:25:56;2.70;99.90
7704;DHT22;3894;49.700;10.770;2022-12-07T17:28:21;2.70;99.90
7704;DHT22;3894;49.700;10.770;2022-12-07T17:30:47;2.70;99.90
7704;DHT22;3894;49.700;10.770;2022-12-07T17:33:12;2.70;99.90
7704;DHT22;3894;49.700;10.770;2022-12-07T17:35:38;2.70;99.90
7704;DHT22;3894;49.700;10.770;2022-12-07T17:38:04;2.70;99.90
7704;DHT22;3894;49.700;10.770;2022-12-07T17:40:29;2.70;99.90
7704;DHT22;3894;49.700;10.770;2022-12-07T17:42:55;2.70;99.90
7704;DHT22;3894;49.700;10.770;2022-12-07T17:45:20;2.70;99.90
7704;DHT22;3894;49.700;10.770;2022-12-07T17:47:46;2.70;99.90
7704;DHT22;3894;49.700;10.770;2022-12-07T17:50:11;2.70;99.90
7704;DHT22;3894;49.700;10.770;2022-12-07T17:52:38;2.70;99.90
7704;DHT22;3894;49.700;10.770;2022-12-07T17:55:23;2.70;99.90
7704;DHT22;3894;49.700;10.770;2022-12-07T17:57:48;2.70;99.90
7704;DHT22;3894;49.700;10.770;2022-12-07T18:00:14;2.70;99.90
7704;DHT22;3894;49.700;10.770;2022-12-07T18:02:40;2.70;99.90